Flight Track Log - Related Links

Times and Time Zones

All times are in EDT time to prevent confusion due to time zone crossing. See the CSJ406 flight status page for this flight to view local times or setup timezone preferences in your user account.

Time Position Orientation Groundspeed Altitude Reporting Facility
EDT Latitude Longitude Course Direction KTS MPH feet Rate Location/Type
Wed 07:34:09 AM 42.9167 -78.7000 137° Southeast 103 119 1,800  Level Buffalo TRACON
Wed 07:35:09 AM 42.9000 -78.7333 236° Southwest 88 101 3,000 900 Climbing Buffalo TRACON
Wed 07:36:09 AM 42.8833 -78.7667 236° Southwest 120 138 3,600 550 Climbing Buffalo TRACON
Wed 07:37:09 AM 42.8667 -78.8000 236° Southwest 132 152 4,100 500 Climbing Buffalo TRACON
Wed 07:38:09 AM 42.8333 -78.8333 216° Southwest 130 150 4,600 500 Climbing Buffalo TRACON
Wed 07:39:09 AM 42.8167 -78.8667 236° Southwest 132 152 5,100 496 Climbing Buffalo TRACON
Wed 07:40:10 AM 42.7833 -78.9000 216° Southwest 133 153 5,600 500 Climbing Buffalo TRACON
Wed 07:41:09 AM 42.7667 -78.9333 236° Southwest 133 153 6,100 504 Climbing Buffalo TRACON
Wed 07:42:09 AM 42.7333 -78.9833 228° Southwest 131 151 6,600 600 Climbing Buffalo TRACON
Wed 07:43:09 AM 42.7167 -79.0167 236° Southwest 128 147 7,300 650 Climbing Buffalo TRACON
Wed 07:44:09 AM 42.6833 -79.0500 216° Southwest 120 138 7,900 400 Climbing Buffalo TRACON
Wed 07:45:09 AM 42.6667 -79.0833 236° Southwest 130 150 8,100 99 Climbing Buffalo TRACON
Wed 07:46:10 AM 42.6333 -79.1167 216° Southwest 148 170 8,100  Level Buffalo TRACON
Wed 07:48:00 AM 42.5880 -79.1849 228° Southwest  Level FlightAware Approximate
Wed 07:55:00 AM 42.4136 -79.4437 225° Southwest  Level FlightAware Approximate
Wed 07:56:00 AM 42.3877 -79.4792 225° Southwest  Level FlightAware Approximate
Wed 07:57:00 AM 42.3592 -79.5182 225° Southwest  Level FlightAware Approximate
Wed 07:58:00 AM 42.3307 -79.5572 225° Southwest  Level FlightAware Approximate
Wed 07:59:00 AM 42.3022 -79.5961 225° Southwest  Level FlightAware Approximate
Wed 08:00:00 AM 42.2737 -79.6350 225° Southwest  Level FlightAware Approximate
Wed 08:01:00 AM 42.2451 -79.6739 225° Southwest  Level FlightAware Approximate
Wed 08:02:00 AM 42.2165 -79.7127 225° Southwest  Level FlightAware Approximate
Wed 08:03:00 AM 42.1880 -79.7515 225° Southwest  Level FlightAware Approximate
Wed 08:04:00 AM 42.1594 -79.7902 225° Southwest  Level FlightAware Approximate
Wed 08:05:00 AM 42.1308 -79.8289 225° Southwest  Level FlightAware Approximate
Wed 08:06:00 AM 42.1022 -79.8676 225° Southwest  Level FlightAware Approximate
Wed 08:07:00 AM 42.0735 -79.9063 225° Southwest  Level FlightAware Approximate
Wed 08:08:00 AM 42.0449 -79.9449 225° Southwest  Level FlightAware Approximate
Wed 08:09:00 AM 42.0163 -79.9835 225° Southwest  Level FlightAware Approximate
Wed 08:10:00 AM 41.9876 -80.0220 225° Southwest  Level FlightAware Approximate
Wed 08:11:00 AM 41.9589 -80.0605 225° Southwest  Level FlightAware Approximate
Wed 08:12:00 AM 41.9302 -80.0990 225° Southwest  Level FlightAware Approximate
Wed 08:13:00 AM 41.9015 -80.1374 225° Southwest  Level FlightAware Approximate
Wed 08:14:00 AM 41.8728 -80.1758 225° Southwest  Level FlightAware Approximate
Wed 08:15:00 AM 41.8441 -80.2142 225° Southwest  Level FlightAware Approximate
Wed 08:16:00 AM 41.8153 -80.2525 225° Southwest  Level FlightAware Approximate
Wed 08:17:00 AM 41.7866 -80.2908 225° Southwest  Level FlightAware Approximate
Wed 08:18:00 AM 41.7578 -80.3291 225° Southwest  Level FlightAware Approximate
Wed 08:19:00 AM 41.7290 -80.3673 225° Southwest  Level FlightAware Approximate
Wed 08:20:00 AM 41.7002 -80.4055 225° Southwest  Level FlightAware Approximate
Wed 08:21:00 AM 41.6714 -80.4437 225° Southwest  Level FlightAware Approximate
Wed 08:22:00 AM 41.6428 -80.4821 225° Southwest  Level FlightAware Approximate
Wed 08:23:00 AM 41.6142 -80.5205 225° Southwest  Level FlightAware Approximate
Wed 08:24:00 AM 41.5856 -80.5589 225° Southwest  Level FlightAware Approximate
Wed 08:25:00 AM 41.5570 -80.5972 225° Southwest  Level FlightAware Approximate
Wed 08:26:00 AM 41.5284 -80.6355 225° Southwest  Level FlightAware Approximate
Wed 08:27:00 AM 41.4997 -80.6738 225° Southwest  Level FlightAware Approximate
Wed 08:28:00 AM 41.4711 -80.7121 225° Southwest  Level FlightAware Approximate
Wed 08:29:00 AM 41.4424 -80.7503 225° Southwest  Level FlightAware Approximate
Wed 08:30:00 AM 41.4137 -80.7884 225° Southwest  Level FlightAware Approximate
Wed 08:31:00 AM 41.3850 -80.8266 225° Southwest  Level FlightAware Approximate
Wed 08:32:00 AM 41.3563 -80.8647 225° Southwest  Level FlightAware Approximate
Wed 08:33:00 AM 41.3276 -80.9028 225° Southwest  Level FlightAware Approximate
Wed 08:34:00 AM 41.2988 -80.9408 225° Southwest  Level FlightAware Approximate
Wed 08:35:00 AM 41.2701 -80.9788 225° Southwest  Level FlightAware Approximate
Wed 08:36:00 AM 41.2381 -81.0119 217° Southwest  Level FlightAware Approximate
Wed 08:37:00 AM 41.2057 -81.0443 217° Southwest  Level FlightAware Approximate
Wed 08:38:00 AM 41.1792 -81.0846 231° Southwest  Level FlightAware Approximate
Wed 08:39:00 AM 41.1540 -81.1267 231° Southwest  Level FlightAware Approximate
Wed 08:40:00 AM 41.1245 -81.1632 229° Southwest  Level FlightAware Approximate
Wed 08:41:00 AM 41.0965 -81.2000 180° South  Level FlightAware Approximate
Wed 08:42:00 AM 41.0663 -81.2284 232° Southwest  Level FlightAware Approximate
Wed 08:43:00 AM 41.0411 -81.2705 232° Southwest  Level FlightAware Approximate
Wed 08:44:00 AM 41.0129 -81.3089 223° Southwest  Level FlightAware Approximate
Wed 08:45:00 AM 40.9834 -81.3458 223° Southwest  Level FlightAware Approximate
Wed 08:46:00 AM 40.9527 -81.3807 217° Southwest  Level FlightAware Approximate
Wed 08:47:00 AM 40.9204 -81.4130 217° Southwest  Level FlightAware Approximate
Wed 08:48:00 AM 40.9000 -81.4333 North  Level FlightAware Approximate
Wed 08:49:00 AM 40.9151 -81.4436 North  Level Estimated
Wed 08:50:00 AM 40.9151 -81.4436 North  Level Estimated
Wed 08:51:00 AM 40.9151 -81.4436 North  Level Estimated
Wed 08:52:00 AM 40.9151 -81.4436 North  Level Estimated
Wed 08:53:00 AM 40.9151 -81.4436 North  Level Estimated
Wed 08:54:00 AM 40.9151 -81.4436 North  Level Estimated
Wed 08:55:00 AM 40.9151 -81.4436 North  Level Estimated
Wed 08:56:00 AM 40.9151 -81.4436 North  Level Estimated
Wed 08:57:00 AM 40.9151 -81.4436 North  Level Estimated

Login

Don't have an account? Register now (free) for customized features, flight alerts, and more!